createdAt,value
2018-07-24T00:02:22.627Z,72.46
2018-07-24T00:04:58.436Z,72.94
2018-07-24T00:07:34.841Z,73.08
2018-07-24T00:10:11.129Z,73.02
2018-07-24T00:12:40.130Z,73.08
2018-07-24T00:15:08.950Z,73.12
2018-07-24T00:17:37.810Z,72.71
2018-07-24T00:20:08.323Z,72.88
2018-07-24T00:22:42.130Z,72.84
2018-07-24T00:25:23.827Z,73.02
2018-07-24T00:27:59.003Z,73.29
2018-07-24T00:30:27.826Z,73.51
2018-07-24T00:32:56.605Z,73.14
2018-07-24T00:35:25.405Z,73.25
2018-07-24T00:37:56.050Z,73.51
2018-07-24T00:40:28.284Z,73.61
2018-07-24T00:42:59.956Z,73.62
2018-07-24T00:45:35.396Z,73.94
2018-07-24T00:48:07.754Z,73.61
2018-07-24T00:50:36.554Z,74.04
2018-07-24T00:53:05.377Z,73.71
2018-07-24T00:55:34.214Z,73.88
2018-07-24T00:58:03.847Z,73.83
2018-07-24T01:00:38.193Z,73.85
2018-07-24T01:03:10.440Z,73.87
2018-07-24T01:05:47.000Z,74.06
2018-07-24T01:08:15.859Z,74.44
2018-07-24T01:10:44.789Z,74.58
2018-07-24T01:13:13.609Z,74.33
2018-07-24T01:15:42.636Z,74.80
2018-07-24T01:18:20.139Z,74.23
2018-07-24T01:20:55.100Z,74.82
2018-07-24T01:23:28.019Z,74.64
2018-07-24T01:25:57.864Z,74.78
2018-07-24T01:28:26.718Z,74.46
2018-07-24T01:30:55.529Z,74.66
2018-07-24T01:36:23.895Z,74.92
2018-07-24T01:38:57.958Z,74.58
2018-07-24T01:41:32.119Z,74.83
2018-07-24T01:44:01.010Z,74.84
2018-07-24T01:46:29.869Z,74.73
2018-07-24T01:48:58.711Z,74.86
2018-07-24T01:51:28.147Z,75.04
2018-07-24T01:53:59.983Z,75.30
2018-07-24T01:56:35.579Z,74.95
2018-07-24T01:59:11.293Z,74.98
2018-07-24T02:01:40.162Z,75.10
2018-07-24T02:04:08.969Z,74.81
2018-07-24T02:06:37.798Z,75.19
2018-07-24T02:09:09.483Z,74.80
2018-07-24T02:11:46.145Z,75.06
2018-07-24T02:14:20.111Z,74.96
2018-07-24T02:16:59.564Z,74.51
2018-07-24T02:19:28.463Z,74.92
2018-07-24T02:21:57.362Z,74.69
2018-07-24T02:24:26.222Z,75.03
2018-07-24T02:26:55.953Z,74.50
2018-07-24T02:29:27.666Z,74.98
2018-07-24T02:31:59.869Z,74.98
2018-07-24T02:34:38.548Z,74.35
2018-07-24T02:37:11.402Z,74.45
2018-07-24T02:39:41.152Z,74.56
2018-07-24T02:42:10.043Z,75.05
2018-07-24T02:44:38.995Z,74.53
2018-07-24T02:47:12.130Z,74.73
2018-07-24T02:49:47.207Z,74.47
2018-07-24T02:52:23.183Z,74.67
2018-07-24T02:54:57.939Z,74.75
2018-07-24T02:57:26.779Z,74.73
2018-07-24T02:59:55.542Z,74.96
2018-07-24T03:02:24.330Z,74.73
2018-07-24T03:04:53.587Z,74.78
2018-07-24T03:07:31.840Z,74.62
2018-07-24T03:10:03.249Z,74.89
2018-07-24T03:12:37.456Z,74.82
2018-07-24T03:15:06.298Z,74.75
2018-07-24T03:17:35.087Z,75.10
2018-07-24T03:20:03.910Z,74.46
2018-07-24T03:22:33.160Z,74.77
2018-07-24T03:25:07.108Z,75.04
2018-07-24T03:27:42.287Z,75.16
2018-07-24T03:32:48.259Z,74.89
2018-07-24T03:35:17.074Z,75.35
2018-07-24T03:37:45.866Z,75.44
2018-07-24T03:40:14.967Z,75.63
2018-07-24T03:42:51.293Z,75.67
2018-07-24T03:45:26.453Z,75.54
2018-07-24T03:47:59.193Z,75.80
2018-07-24T03:50:27.967Z,75.72
2018-07-24T03:52:56.860Z,75.53
2018-07-24T03:55:25.662Z,75.97
2018-07-24T03:57:54.655Z,76.01
2018-07-24T04:00:27.423Z,75.93
2018-07-24T04:02:59.854Z,75.85
2018-07-24T04:05:35.577Z,75.73
2018-07-24T04:08:07.644Z,76.13
2018-07-24T04:10:36.516Z,76.04
2018-07-24T04:13:05.394Z,76.08
2018-07-24T04:15:35.470Z,76.29
2018-07-24T04:18:10.382Z,76.35
2018-07-24T04:20:42.802Z,76.52
2018-07-24T04:23:18.499Z,76.44
2018-07-24T04:25:47.309Z,76.44
2018-07-24T04:28:16.150Z,76.56
2018-07-24T04:30:44.988Z,76.89
2018-07-24T04:33:14.195Z,76.42
2018-07-24T04:35:47.064Z,77.21
2018-07-24T04:38:20.283Z,77.29
2018-07-24T04:40:51.831Z,76.83
2018-07-24T04:43:20.650Z,76.84
2018-07-24T04:45:49.555Z,77.03
2018-07-24T04:48:18.418Z,77.16
2018-07-24T04:50:47.527Z,76.70
2018-07-24T04:53:30.924Z,77.01
2018-07-24T04:56:07.416Z,77.00
2018-07-24T04:58:39.927Z,77.12
2018-07-24T05:01:08.722Z,76.84
2018-07-24T05:03:39.461Z,76.92
2018-07-24T05:06:08.278Z,76.70
2018-07-24T05:08:38.096Z,77.20
2018-07-24T05:11:10.492Z,77.16
2018-07-24T05:13:46.812Z,76.89
2018-07-24T05:16:19.537Z,77.27
2018-07-24T05:18:48.338Z,77.29
2018-07-24T05:21:17.309Z,77.37
2018-07-24T05:23:46.219Z,77.36
2018-07-24T05:35:23.943Z,77.97
2018-07-24T05:37:52.947Z,78.00
2018-07-24T05:40:22.094Z,77.85
2018-07-24T05:51:59.363Z,78.06
2018-07-24T05:54:28.323Z,78.27
2018-07-24T05:56:57.340Z,78.22
2018-07-24T06:11:09.073Z,78.01
2018-07-24T06:13:38.496Z,77.97
2018-07-24T06:25:30.139Z,77.59
2018-07-24T06:27:59.138Z,77.23
2018-07-24T06:30:28.539Z,77.09
2018-07-24T06:44:54.153Z,76.36
2018-07-24T06:47:23.206Z,76.80
2018-07-24T06:49:52.690Z,76.71
2018-07-24T07:01:30.456Z,75.82
2018-07-24T07:03:59.592Z,75.18
2018-07-24T07:06:28.919Z,75.02
2018-07-24T07:18:05.697Z,75.08
2018-07-24T07:20:35.606Z,74.81
2018-07-24T07:23:05.707Z,74.76
2018-07-24T07:34:45.303Z,74.11
2018-07-24T07:37:17.303Z,74.49
2018-07-24T07:39:46.590Z,74.36
2018-07-24T07:54:28.472Z,74.36
2018-07-24T07:56:59.573Z,74.30
2018-07-24T08:08:56.183Z,75.00
2018-07-24T08:11:27.951Z,75.02
2018-07-24T08:14:34.373Z,74.26
2018-07-24T08:26:20.020Z,73.41
2018-07-24T09:02:16.398Z,74.86
2018-07-24T09:04:45.569Z,75.11
2018-07-24T09:07:15.115Z,75.59
2018-07-24T09:18:52.996Z,75.79
2018-07-24T09:21:22.095Z,76.34
2018-07-24T09:23:51.170Z,75.65
2018-07-24T09:35:29.168Z,75.83
2018-07-24T09:37:58.502Z,76.16
2018-07-24T09:40:27.763Z,76.61
2018-07-24T09:52:04.910Z,76.92
2018-07-24T09:54:34.092Z,77.77
2018-07-24T09:57:03.131Z,77.65
2018-07-24T10:08:41.470Z,78.18
2018-07-24T10:11:10.598Z,77.80
2018-07-24T10:13:39.661Z,78.02
2018-07-24T10:25:29.126Z,77.42
2018-07-24T10:27:58.176Z,76.60
2018-07-24T10:30:27.575Z,76.12
2018-07-24T10:44:59.335Z,72.76
2018-07-24T10:47:28.878Z,73.04
2018-07-24T11:02:07.431Z,70.98
2018-07-24T11:04:36.553Z,70.25
2018-07-24T11:19:09.571Z,70.13
2018-07-24T11:21:38.698Z,70.05
2018-07-24T11:24:08.013Z,70.68
2018-07-24T11:35:46.646Z,73.60
2018-07-24T11:38:15.627Z,73.96
2018-07-24T11:40:45.036Z,74.22
2018-07-24T11:52:22.895Z,75.34
2018-07-24T11:54:52.159Z,75.57
2018-07-24T11:57:21.418Z,74.54
2018-07-24T12:09:00.112Z,70.10
2018-07-24T12:11:29.421Z,69.29
2018-07-24T12:13:58.554Z,67.62
2018-07-24T12:25:36.199Z,61.21
2018-07-24T12:28:05.132Z,60.41
2018-07-24T12:30:34.141Z,58.99
2018-07-24T12:42:20.382Z,58.72
2018-07-24T12:44:49.403Z,58.07
2018-07-24T12:47:19.392Z,58.08
2018-07-24T12:49:48.801Z,56.79
2018-07-24T13:01:26.455Z,56.58
2018-07-24T13:03:55.356Z,56.17
2018-07-24T13:06:25.310Z,55.36
2018-07-24T13:18:15.782Z,55.13
2018-07-24T13:20:44.824Z,54.61
2018-07-24T13:23:13.995Z,53.91
2018-07-24T13:34:50.769Z,53.94
2018-07-24T13:37:19.837Z,53.59
2018-07-24T13:39:54.197Z,54.22
2018-07-24T13:51:32.610Z,52.54
2018-07-24T13:54:01.548Z,52.23
2018-07-24T13:56:30.496Z,50.53
2018-07-24T14:08:07.060Z,47.49
2018-07-24T14:10:36.130Z,46.79
2018-07-24T14:13:05.155Z,47.04
2018-07-24T14:25:06.362Z,45.85
2018-07-24T14:44:14.676Z,43.39
2018-07-24T14:46:57.343Z,42.37
2018-07-24T14:49:26.504Z,42.62
2018-07-24T15:01:02.985Z,41.57
2018-07-24T15:03:32.100Z,41.76
2018-07-24T15:06:01.359Z,40.36
2018-07-24T15:17:40.022Z,38.29
2018-07-24T15:20:09.120Z,37.71
2018-07-24T15:22:38.524Z,37.98
2018-07-24T15:37:36.893Z,37.76
2018-07-24T16:32:13.939Z,37.77
2018-07-24T17:57:01.755Z,39.27
2018-07-24T17:59:31.990Z,38.84
2018-07-24T18:13:55.281Z,38.58
2018-07-24T18:16:25.977Z,38.64
2018-07-24T18:18:55.276Z,38.30
2018-07-24T18:30:34.027Z,38.33
2018-07-24T18:33:03.477Z,38.39
2018-07-24T18:35:32.892Z,38.89
2018-07-24T18:50:13.751Z,42.01
2018-07-24T18:52:42.878Z,42.54
2018-07-24T18:55:12.158Z,43.87
2018-07-24T19:06:49.961Z,47.50
2018-07-24T19:09:19.464Z,47.56
2018-07-24T19:11:48.671Z,48.39
2018-07-24T19:23:44.868Z,51.17
2018-07-24T19:26:14.262Z,52.43
2018-07-24T19:28:43.677Z,52.62
2018-07-24T19:46:07.640Z,55.54
2018-07-24T19:48:36.900Z,55.30
2018-07-24T19:51:06.758Z,56.00
2018-07-24T20:03:01.914Z,56.55
2018-07-24T20:05:32.108Z,57.32
2018-07-24T20:08:01.370Z,57.75
2018-07-24T20:10:31.710Z,57.56
2018-07-24T20:22:09.275Z,58.70
2018-07-24T20:24:38.589Z,59.53
2018-07-24T20:27:07.852Z,59.82
2018-07-24T20:39:01.609Z,59.91
2018-07-24T20:41:30.936Z,60.56
2018-07-24T20:44:00.075Z,60.71
2018-07-24T20:46:35.668Z,60.76
2018-07-24T20:58:13.075Z,61.34
2018-07-24T21:00:42.451Z,61.38
2018-07-24T21:03:11.819Z,61.97
2018-07-24T21:14:49.456Z,62.85
2018-07-24T21:17:18.823Z,62.64
2018-07-24T21:19:48.221Z,63.22
2018-07-24T21:31:25.269Z,62.84
2018-07-24T21:33:54.560Z,63.12
2018-07-24T21:36:23.797Z,63.05
2018-07-24T21:48:00.686Z,63.56
2018-07-24T21:50:29.714Z,63.96
2018-07-24T21:52:58.857Z,63.87
2018-07-24T21:55:28.503Z,64.19
2018-07-24T22:07:05.794Z,64.99
2018-07-24T22:09:34.694Z,65.10
2018-07-24T22:12:04.663Z,65.49
2018-07-24T22:23:41.516Z,65.26
2018-07-24T22:26:10.404Z,65.34
2018-07-24T22:28:39.694Z,65.34
2018-07-24T22:40:16.514Z,65.59
2018-07-24T22:42:45.438Z,65.73
2018-07-24T22:45:14.288Z,65.49
2018-07-24T22:47:43.415Z,65.22
2018-07-24T22:50:19.621Z,65.20
2018-07-24T22:52:51.641Z,65.22
2018-07-24T22:55:23.731Z,65.25
2018-07-24T22:57:52.510Z,65.12
2018-07-24T23:00:21.353Z,65.09
2018-07-24T23:02:50.248Z,64.98
2018-07-24T23:05:19.608Z,64.96
2018-07-24T23:07:52.160Z,64.93
2018-07-24T23:10:42.502Z,65.07
2018-07-24T23:13:19.655Z,65.13
2018-07-24T23:15:49.530Z,65.34
2018-07-24T23:18:18.494Z,65.44
2018-07-24T23:20:48.352Z,65.27
2018-07-24T23:23:18.720Z,65.38
2018-07-24T23:25:50.692Z,65.29
2018-07-24T23:28:21.405Z,65.35
2018-07-24T23:30:52.592Z,65.28
2018-07-24T23:33:27.094Z,65.65
2018-07-24T23:35:56.022Z,65.59
2018-07-24T23:38:25.469Z,65.82
2018-07-24T23:40:54.382Z,65.57
2018-07-24T23:43:26.640Z,65.66
2018-07-24T23:46:00.336Z,65.71
2018-07-24T23:48:32.000Z,65.78
2018-07-24T23:51:04.052Z,65.77
2018-07-24T23:53:32.971Z,65.84
2018-07-24T23:56:01.862Z,65.75
2018-07-24T23:58:31.042Z,65.97
